WPFL weather

Fuiloro Airfield
Fuiloro, Lautém, Timor-Leste

Public forecast

Using degrees Celsius for public forecast. Weather courtesy of forecast.io.

Closest aviation weather report (METAR) to Fuiloro Airfield

Closest report is El Tari Airport, 222.1 nm (411.3 km) WSW. Retrieved 2020/06/03 11:30 UTC (27 minutes ago):

WATT 031130Z 12012KT 8000 FEW016 26/22 Q1015 NOSIG

Closest aviation forecast (TAF) to Fuiloro Airfield

Closest forecast is Presidente Nicolau Lobato International Airport, 87.0 nm (161.1 km) W. Retrieved 2020/06/03 08:03 UTC (4 hours ago):

TAF TAF WPDL 030617Z 0308/0320 05013KT 9999 FEW045 FM031000 11006KT 9999 FEW040